Relevés horaires Bierset (Belgique)


Relevés horaires à Bierset - Jeudi 16 Janv. 2020
Heure UTC1 Température [°C] Vent [km/h] Hum. [%] Pres.4 [hPa] Visi. [Km] Nébu. [octa] Préc.5 [mm] Cond.
2m. Res. Ros. Dir.2 Vit. Moy. Raf.3
23:00 9.6 7.7 3.3 S 13.0 14.8 20.4 65 1019(-1.2/3h) 30 2/8 -- --
22:00 10.1 8.1 4.0 S 14.8 16.7 24.1 66 1019.3(-1.7/3h) 30 2/8 -- --
21:00 10.4 8.4 4.5 S 14.8 16.7 24.1 67 1019.4(-2.1/3h) 25 3/8 -- --
20:00 10.5 8.8 5.4 S 13.0 13.0 20.4 71 1020.1(-1.5/3h) 25 3/8 -- --
19:00 10.1 8.6 5.5 SSE 11.1 14.8 20.4 73 1021(-1.0/3h) 25 3/8 -- --
18:00 10.5 8.8 5.4 S 13.0 14.8 22.2 71 1021.4(-1.1/3h) 25 3/8 0/12h
--
17:00 10.5 9.1 5.3 SSE 11.1 11.1 18.5 70 1021.7(-1.2/3h) 25 3/8 -- --
16:00 10.6 9.2 5.6 S 11.1 11.1 16.7 71 1021.9(-1.8/3h) 25 3/8 -- --
15:00 11.3 10 6.0 S 11.1 14.8 22.2 70 1022.5(-2.1/3h) 25 3/8 -- --
14:00 11.4 10.1 5.7 S 11.1 13.0 18.5 68 1022.8(-2.5/3h) 25 3/8 -- --
13:00 10.7 9.3 5.6 S 11.1 14.8 22.2 71 1023.7(-1.8/3h) 25 1/8 -- --
12:00 10.4 8.7 5.9 S 13.0 13.0 22.2 74 1024.7(-1.1/3h) 25 2/8 0/6h
--
11:00 9.3 7.9 5.6 S 9.3 11.1 20.4 78 1025.6(-0.5/3h) 25 3/8 -- --
10:00 7.7 6.4 5.4 SSE 7.4 9.3 14.8 85 1025.8(-0.2/3h) 25 3/8 -- --
09:00 6.6 5.2 4.6 SSE 7.4 9.3 16.7 87 1026.1(0.2/3h) 25 3/8 -- --
08:00 5.2 3.1 3.8 S 9.3 9.3 11.1 91 1026.4(0.3/3h) 25 1/8 -- --
07:00 4.9 3.7 3.6 S 5.6 5.6 16.7 91 1026.3(-0.2/3h) 25 1/8 -- --
06:00 4.5 3.3 3.2 SSE 5.6 7.4 16.7 91 1026.1(0.2/3h) 25 1/8 0/12h
--
05:00 4.4 3.2 3.3 SE 5.6 7.4 13.0 93 1026.2(0.6/3h) 25 1/8 -- --
04:00 5.7 4.7 4.1 S 5.6 5.6 9.3 89 1026(1.2/3h) 25 1/8 -- --
03:00 5.5 4.4 3.9 S 5.6 7.4 11.1 89 1025.8(1.4/3h) 15 1/8 -- --
02:00 5.8 4.8 4.6 S 5.6 7.4 11.1 92 1025.4(1.8/3h) 30 1/8 -- --
01:00 6.3 4.8 4.9 SO 7.4 7.4 9.3 91 1024.7(2.5/3h) 30 1/8 -- --
00:00 5.9 4.3 4.8 SO 7.4 16.7 22.2 93 1024.3(3.1/3h) 30 1/8 trace/6h
0.5/24h
Etat du ciel inchangé

1 Coordinated Universal Time. Actuellement il est 23:00 locale et 21:00 UTC.

2 Le vent souffle depuis la direction indiquée vers la direction oposée.

3 Les rafales max. sont disponible 40 min après l'heure du relevé.

4 Pour les stations d'altitude (plus de 600m) le géopotentiel du niveau le plus proche de la pression obligatoire est indiqué.

5 Les stations disposant d'un diffuseur peuvent indiquer "trace". Cela signifie que des précipitations ont touchés le sol mais que la quantité est inférieure à 0.1 mm.

Récapitulatif de la journée
Température [°C] Vent [km/h] Ensoleillement4 [h] Precipitations totale5 [mm] Pression [Hpa]
Min1 Max.2 Moy.3 Max. Min Max.
4.2 11.7 11.4 24.1 0 h 0 min 0 1019.0 1026.4

1 Température minimale relevée entre 18:00 UTC la veille et 18:00 UTC le jour donné.

2 Température maximale relevée entre 06:00 UTC le jour donné et 06:00 UTC le lendemain.

3 Vent moyen de la journée basé sur les relevés horaires.

4 Ensoleillement en heures relevé entre 06:00 UTC la veille et 06:00 UTC le jour donné.

5 Précipitations totales tombées entre 06:00 UTC la jour donné et 06:00 UTC le lendemain.

Graphiques horaires